Time;durP1;ratioP1;P1;durP2;ratioP2;P2;SDS_P1;SDS_P2;PMS_P1;PMS_P2;Temp;Humidity;BMP_temperature;BMP_pressure;BME280_temperature;BME280_humidity;BME280_pressure;Samples;Min_cycle;Max_cycle;Signal;HPM_P1;HPM_P2
2023/02/14 00:02:16;;;;;;;21.45;15.38;;;6.90;99.90;;;;;;5060960;28;20044;-43
2023/02/14 00:04:44;;;;;;;19.98;14.98;;;6.90;99.90;;;;;;5039372;28;20029;-43
2023/02/14 00:07:10;;;;;;;19.98;15.52;;;6.90;99.90;;;;;;5053344;28;20033;-43
2023/02/14 00:09:36;;;;;;;20.85;15.63;;;6.90;99.90;;;;;;5059493;28;20021;-43
2023/02/14 00:12:02;;;;;;;22.48;15.65;;;6.90;99.90;;;;;;5059464;28;20171;-43
2023/02/14 00:17:12;;;;;;;22.95;15.05;;;6.90;99.90;;;;;;5060566;28;20218;-44
2023/02/14 00:19:37;;;;;;;22.20;14.80;;;6.90;99.90;;;;;;5061022;28;20021;-43
2023/02/14 00:22:04;;;;;;;18.40;14.65;;;6.90;99.90;;;;;;5060458;28;20039;-44
2023/02/14 00:24:32;;;;;;;21.55;15.63;;;6.90;99.90;;;;;;5059164;28;20144;-43
2023/02/14 00:26:58;;;;;;;17.95;13.88;;;6.90;99.90;;;;;;5059147;28;20586;-43
2023/02/14 00:29:29;;;;;;;19.70;15.13;;;6.90;99.90;;;;;;5060608;28;20111;-43
2023/02/14 00:31:59;;;;;;;19.58;14.85;;;6.80;99.90;;;;;;5059696;28;20029;-43
2023/02/14 00:34:24;;;;;;;22.20;14.82;;;6.90;99.90;;;;;;5048792;28;20050;-43
2023/02/14 00:36:50;;;;;;;20.88;15.70;;;6.80;99.90;;;;;;5058503;28;20028;-43
2023/02/14 00:39:19;;;;;;;21.92;16.15;;;6.80;99.90;;;;;;5058385;28;20028;-42
2023/02/14 00:41:44;;;;;;;21.50;15.60;;;6.80;99.90;;;;;;5058861;28;20103;-42
2023/02/14 00:44:11;;;;;;;21.58;16.08;;;6.80;99.90;;;;;;5059624;28;20028;-42
2023/02/14 00:46:37;;;;;;;21.55;15.68;;;6.70;99.90;;;;;;5059332;28;20033;-42
2023/02/14 00:49:03;;;;;;;22.42;16.48;;;6.70;99.90;;;;;;5059611;28;20020;-44
2023/02/14 00:51:29;;;;;;;20.42;15.48;;;6.70;99.90;;;;;;5059898;28;20135;-43
2023/02/14 00:53:55;;;;;;;23.38;17.05;;;6.70;99.90;;;;;;5058480;28;20353;-43
2023/02/14 00:56:20;;;;;;;20.98;16.08;;;6.70;99.90;;;;;;5057500;28;20025;-43
2023/02/14 00:58:46;;;;;;;21.88;16.08;;;6.70;99.90;;;;;;5051984;28;20029;-43
2023/02/14 01:01:13;;;;;;;22.60;15.43;;;6.70;99.90;;;;;;5059667;28;20028;-42
2023/02/14 01:03:38;;;;;;;22.25;15.73;;;6.60;99.90;;;;;;5059440;28;20080;-43
2023/02/14 01:06:04;;;;;;;19.15;14.90;;;6.60;99.90;;;;;;5059439;28;20127;-43
2023/02/14 01:08:30;;;;;;;19.98;14.90;;;6.70;99.90;;;;;;5059112;28;20036;-42
2023/02/14 01:10:56;;;;;;;17.92;14.13;;;6.60;99.90;;;;;;5059500;28;20085;-43
2023/02/14 01:13:22;;;;;;;20.52;14.65;;;6.60;99.90;;;;;;5058385;28;20174;-42
2023/02/14 01:15:50;;;;;;;19.55;14.90;;;6.60;99.90;;;;;;5059252;28;20089;-42
2023/02/14 01:18:18;;;;;;;19.88;14.57;;;6.60;99.90;;;;;;5058608;28;20028;-42
2023/02/14 01:20:46;;;;;;;21.20;15.38;;;6.50;99.90;;;;;;5058581;28;20931;-43
2023/02/14 01:23:12;;;;;;;23.17;15.60;;;6.50;99.90;;;;;;5059198;28;20106;-43
2023/02/14 01:25:38;;;;;;;18.92;14.70;;;6.50;99.90;;;;;;5058238;28;20534;-43
2023/02/14 01:28:04;;;;;;;20.88;15.40;;;6.50;99.90;;;;;;5059056;28;20036;-43
2023/02/14 01:30:30;;;;;;;21.30;14.73;;;6.40;99.90;;;;;;5058249;28;20024;-43
2023/02/14 01:32:55;;;;;;;21.60;15.57;;;6.40;99.90;;;;;;5059561;28;20844;-43
2023/02/14 01:35:21;;;;;;;20.30;15.15;;;6.40;99.90;;;;;;5058986;28;20021;-43
2023/02/14 01:37:47;;;;;;;20.15;15.30;;;6.40;99.90;;;;;;5058664;28;20547;-43
2023/02/14 01:40:13;;;;;;;17.88;14.43;;;6.40;99.90;;;;;;5058996;28;20508;-43
2023/02/14 01:42:39;;;;;;;22.50;15.65;;;6.40;99.90;;;;;;5058152;28;20024;-43
2023/02/14 01:45:08;;;;;;;21.55;15.77;;;6.30;99.90;;;;;;5057762;28;20021;-44
2023/02/14 01:47:39;;;;;;;19.95;14.38;;;6.30;99.90;;;;;;5057936;28;20089;-43
2023/02/14 01:50:24;;;;;;;21.33;15.18;;;6.30;99.90;;;;;;5058714;28;20485;-43
2023/02/14 01:52:56;;;;;;;19.50;14.77;;;6.30;99.90;;;;;;5059941;28;20057;-43
2023/02/14 01:55:26;;;;;;;20.98;15.45;;;6.30;99.90;;;;;;5059620;28;20102;-43
2023/02/14 01:58:11;;;;;;;17.65;14.48;;;6.30;99.90;;;;;;5058974;28;20115;-43
2023/02/14 02:00:56;;;;;;;18.55;14.70;;;6.30;99.90;;;;;;5059426;28;20028;-43
2023/02/14 02:03:43;;;;;;;17.48;13.85;;;6.30;99.90;;;;;;5057838;28;20135;-42
2023/02/14 02:06:20;;;;;;;19.45;15.15;;;6.20;99.90;;;;;;5056399;28;22072;-42
2023/02/14 02:09:07;;;;;;;22.75;14.55;;;6.20;99.90;;;;;;5058828;28;20087;-42
2023/02/14 02:11:33;;;;;;;17.42;13.85;;;6.20;99.90;;;;;;5058985;28;20111;-42
2023/02/14 02:13:59;;;;;;;21.30;14.95;;;6.20;99.90;;;;;;5058067;28;20036;-42
2023/02/14 02:16:45;;;;;;;18.13;14.25;;;6.20;99.90;;;;;;5059848;28;20028;-42
2023/02/14 02:19:20;;;;;;;17.63;13.00;;;6.20;99.90;;;;;;5047028;28;20028;-42
2023/02/14 02:21:57;;;;;;;17.75;13.40;;;6.20;99.90;;;;;;5058952;28;20040;-42
2023/02/14 02:24:40;;;;;;;20.40;14.38;;;6.20;99.90;;;;;;5041381;28;20556;-42
2023/02/14 02:27:26;;;;;;;19.45;14.00;;;6.10;99.90;;;;;;5058461;28;20047;-42
2023/02/14 02:30:29;;;;;;;20.40;14.73;;;6.10;99.90;;;;;;5057649;28;20051;-43
2023/02/14 02:33:16;;;;;;;21.50;14.15;;;6.10;99.90;;;;;;5054395;28;20028;-43
2023/02/14 02:36:06;;;;;;;18.73;14.38;;;6.10;99.90;;;;;;5057815;28;20032;-42
2023/02/14 02:38:57;;;;;;;20.48;14.02;;;6.10;99.90;;;;;;5058533;28;20029;-42
2023/02/14 02:41:44;;;;;;;19.25;13.82;;;6.00;99.90;;;;;;5058839;28;20073;-42
2023/02/14 02:44:17;;;;;;;19.35;13.57;;;6.00;99.90;;;;;;5058388;28;20042;-43
2023/02/14 02:46:59;;;;;;;18.45;12.85;;;6.00;99.90;;;;;;5058233;28;20036;-42
2023/02/14 02:58:31;;;;;;;17.33;12.82;;;5.90;99.90;;;;;;5061767;28;20109;-43
2023/02/14 03:01:00;;;;;;;16.83;12.68;;;5.90;99.90;;;;;;5061586;28;20460;-43
2023/02/14 03:06:11;;;;;;;18.73;13.48;;;5.90;99.90;;;;;;5061668;28;20035;-42
2023/02/14 03:08:39;;;;;;;17.58;12.60;;;5.90;99.90;;;;;;5061280;28;20024;-43
2023/02/14 03:11:04;;;;;;;17.92;13.35;;;5.80;99.90;;;;;;5061241;28;20029;-42
2023/02/14 03:13:52;;;;;;;15.50;12.13;;;5.80;99.90;;;;;;5060222;28;20016;-43
2023/02/14 03:16:34;;;;;;;17.60;12.70;;;5.80;99.90;;;;;;5042072;28;20025;-42
2023/02/14 03:22:14;;;;;;;19.60;12.52;;;5.80;99.90;;;;;;5061419;28;20281;-42
2023/02/14 03:25:07;;;;;;;15.70;12.15;;;5.70;99.90;;;;;;5061756;28;20028;-41
2023/02/14 03:27:43;;;;;;;16.90;12.93;;;5.70;99.90;;;;;;5060218;28;20051;-42
2023/02/14 03:30:20;;;;;;;17.77;12.13;;;5.70;99.90;;;;;;5061517;28;20067;-42
2023/02/14 03:32:50;;;;;;;15.07;11.93;;;5.60;99.90;;;;;;5061271;28;20596;-42
2023/02/14 03:35:27;;;;;;;16.58;11.75;;;5.60;99.90;;;;;;5060746;28;20028;-42
2023/02/14 03:37:55;;;;;;;16.08;11.57;;;5.60;99.90;;;;;;5060897;28;20021;-43
2023/02/14 03:40:35;;;;;;;16.33;12.00;;;5.60;99.90;;;;;;5061913;28;20379;-43
2023/02/14 03:43:07;;;;;;;17.55;12.85;;;5.50;99.90;;;;;;5059504;28;20037;-43
2023/02/14 03:45:38;;;;;;;16.58;11.90;;;5.50;99.90;;;;;;5061382;28;20031;-42
2023/02/14 03:48:09;;;;;;;15.25;12.15;;;5.50;99.90;;;;;;5060760;28;20040;-43
2023/02/14 03:50:39;;;;;;;16.48;11.57;;;5.50;99.90;;;;;;5058184;28;20412;-43
2023/02/14 03:53:07;;;;;;;15.60;12.18;;;5.40;99.90;;;;;;5061210;28;20032;-43
2023/02/14 03:55:45;;;;;;;17.23;12.27;;;5.40;99.90;;;;;;5060060;28;20066;-42
2023/02/14 03:58:18;;;;;;;16.42;11.23;;;5.30;99.90;;;;;;5059792;28;20456;-42
2023/02/14 04:00:46;;;;;;;15.73;11.93;;;5.30;99.90;;;;;;5060326;28;20063;-42
2023/02/14 04:03:14;;;;;;;16.23;11.40;;;5.20;99.90;;;;;;5060445;28;20063;-42
2023/02/14 04:05:42;;;;;;;15.30;11.18;;;5.20;99.90;;;;;;5060415;28;20829;-42
2023/02/14 04:08:10;;;;;;;16.55;12.18;;;5.20;99.90;;;;;;5060876;28;20055;-43
2023/02/14 04:10:36;;;;;;;16.27;11.68;;;5.10;99.90;;;;;;5059813;28;20024;-43
2023/02/14 04:13:02;;;;;;;19.42;12.50;;;5.10;99.90;;;;;;5061369;28;20410;-43
2023/02/14 04:15:27;;;;;;;17.38;11.90;;;5.10;99.90;;;;;;5059635;28;20037;-43
2023/02/14 04:20:37;;;;;;;17.17;12.45;;;5.10;99.90;;;;;;5054603;28;20110;-42
2023/02/14 04:23:03;;;;;;;17.83;12.90;;;5.10;99.90;;;;;;5060736;28;20510;-42
2023/02/14 04:25:28;;;;;;;16.90;12.27;;;5.20;99.90;;;;;;5059738;28;20021;-43
2023/02/14 04:27:54;;;;;;;16.67;12.35;;;5.10;99.90;;;;;;5059992;28;20753;-43
2023/02/14 04:30:21;;;;;;;16.80;12.25;;;5.20;99.90;;;;;;5059061;28;20021;-43
2023/02/14 04:32:47;;;;;;;20.95;14.32;;;5.20;99.90;;;;;;5060210;28;20135;-42
2023/02/14 04:35:13;;;;;;;17.13;13.23;;;5.10;99.90;;;;;;5060070;28;20017;-43
2023/02/14 04:37:59;;;;;;;18.17;13.35;;;5.10;99.90;;;;;;5060070;28;20033;-43
2023/02/14 04:40:28;;;;;;;17.77;13.90;;;5.10;99.90;;;;;;5060922;28;20028;-42
2023/02/14 04:42:54;;;;;;;18.25;13.38;;;5.10;99.90;;;;;;5060035;28;20032;-43
2023/02/14 04:45:20;;;;;;;18.85;12.75;;;5.10;99.90;;;;;;5057847;28;20379;-43
2023/02/14 04:47:45;;;;;;;18.42;13.50;;;5.10;99.90;;;;;;5059279;28;20763;-43
2023/02/14 04:50:12;;;;;;;16.77;12.48;;;5.10;99.90;;;;;;5059666;28;20464;-43
2023/02/14 04:52:38;;;;;;;15.50;12.23;;;5.10;99.90;;;;;;5058699;28;20455;-43
2023/02/14 04:55:04;;;;;;;15.93;11.98;;;5.00;99.90;;;;;;5059687;28;20053;-43
2023/02/14 04:57:36;;;;;;;20.40;13.02;;;5.00;99.90;;;;;;5059972;28;20430;-43
2023/02/14 05:00:03;;;;;;;16.38;12.23;;;5.00;99.90;;;;;;5060121;28;20024;-43
2023/02/14 05:02:31;;;;;;;16.27;12.77;;;5.00;99.90;;;;;;5059148;28;20159;-43
2023/02/14 05:04:56;;;;;;;18.58;13.25;;;5.00;99.90;;;;;;5059416;28;20187;-43
2023/02/14 05:07:22;;;;;;;16.98;12.27;;;5.00;99.90;;;;;;5058697;28;20804;-43
2023/02/14 05:09:50;;;;;;;16.50;12.75;;;5.00;99.90;;;;;;5058767;28;20133;-43
2023/02/14 05:12:16;;;;;;;16.90;13.05;;;4.90;99.90;;;;;;5059275;28;20040;-43
2023/02/14 05:14:42;;;;;;;18.05;13.30;;;4.90;99.90;;;;;;5058127;28;20383;-44
2023/02/14 05:17:10;;;;;;;15.85;12.63;;;4.90;99.90;;;;;;5057090;28;20052;-43
2023/02/14 05:19:36;;;;;;;16.45;11.80;;;4.80;99.90;;;;;;5058993;28;20040;-43
2023/02/14 05:22:01;;;;;;;15.68;12.25;;;4.80;99.90;;;;;;5058963;28;20028;-43
2023/02/14 05:24:27;;;;;;;16.92;11.23;;;4.80;99.90;;;;;;5059210;28;20466;-43
2023/02/14 05:26:52;;;;;;;15.07;11.13;;;4.80;99.90;;;;;;5057722;28;20033;-43
2023/02/14 05:29:18;;;;;;;14.48;11.07;;;4.70;99.90;;;;;;5059191;28;20052;-43
2023/02/14 05:31:44;;;;;;;13.20;10.55;;;4.70;99.90;;;;;;5058224;28;20028;-43
2023/02/14 05:34:10;;;;;;;14.13;10.48;;;4.60;99.90;;;;;;5057415;28;20372;-43
2023/02/14 05:36:36;;;;;;;16.85;11.02;;;4.60;99.90;;;;;;5059109;28;20025;-43
2023/02/14 05:39:01;;;;;;;16.63;10.55;;;4.50;99.90;;;;;;5059498;28;20041;-43
2023/02/14 05:41:27;;;;;;;14.82;11.02;;;4.50;99.90;;;;;;5058955;28;20027;-44
2023/02/14 05:43:52;;;;;;;15.30;11.70;;;4.40;99.90;;;;;;5058688;28;20667;-43
2023/02/14 05:46:18;;;;;;;16.33;11.07;;;4.40;99.90;;;;;;5059218;28;20020;-41
2023/02/14 05:48:47;;;;;;;15.45;11.43;;;4.40;99.90;;;;;;5057841;28;20036;-41
2023/02/14 05:51:12;;;;;;;17.20;11.90;;;4.40;99.90;;;;;;5057857;28;20024;-41
2023/02/14 05:53:38;;;;;;;16.75;12.10;;;4.40;99.90;;;;;;5057444;28;20036;-42
2023/02/14 05:56:04;;;;;;;15.18;11.80;;;4.40;99.90;;;;;;5055806;28;20341;-42
2023/02/14 05:58:30;;;;;;;16.17;11.55;;;4.30;99.90;;;;;;5058400;28;20078;-42
2023/02/14 06:00:56;;;;;;;16.95;11.85;;;4.30;99.90;;;;;;5056734;28;21007;-42
2023/02/14 06:03:25;;;;;;;15.93;12.00;;;4.30;99.90;;;;;;5054044;28;20044;-43
2023/02/14 06:05:51;;;;;;;17.08;11.80;;;4.30;99.90;;;;;;5073411;28;20042;-43
2023/02/14 06:08:16;;;;;;;15.30;11.40;;;4.30;99.90;;;;;;5062803;28;20201;-43
2023/02/14 06:10:42;;;;;;;16.17;11.95;;;4.30;99.90;;;;;;5058520;28;20967;-43
2023/02/14 06:13:07;;;;;;;18.23;12.55;;;4.30;99.90;;;;;;5059103;28;20024;-44
2023/02/14 06:15:37;;;;;;;15.05;11.35;;;4.20;99.90;;;;;;5059487;28;20460;-43
2023/02/14 06:18:03;;;;;;;16.15;11.75;;;4.20;99.90;;;;;;5057955;28;20017;-42
2023/02/14 06:20:29;;;;;;;14.55;11.25;;;4.10;99.90;;;;;;5058796;28;20384;-44
2023/02/14 06:22:55;;;;;;;13.73;10.80;;;4.10;99.90;;;;;;5055451;28;20510;-42
2023/02/14 06:25:22;;;;;;;13.43;11.05;;;4.00;99.90;;;;;;5059165;28;20376;-41
2023/02/14 06:27:47;;;;;;;15.15;10.55;;;4.00;99.90;;;;;;5059157;28;20758;-43
2023/02/14 06:30:14;;;;;;;15.75;10.63;;;3.90;99.90;;;;;;5061672;28;20028;-44
2023/02/14 06:32:39;;;;;;;16.63;11.73;;;3.90;99.90;;;;;;5062348;28;20063;-44
2023/02/14 06:35:08;;;;;;;14.75;11.43;;;3.90;99.90;;;;;;5061782;28;20429;-44
2023/02/14 06:37:34;;;;;;;14.63;10.45;;;3.90;99.90;;;;;;5061606;28;20086;-44
2023/02/14 06:40:00;;;;;;;16.30;11.75;;;3.90;99.90;;;;;;5061534;28;20024;-43
2023/02/14 06:42:29;;;;;;;16.08;11.90;;;3.80;99.90;;;;;;5063557;28;20024;-44
2023/02/14 06:44:54;;;;;;;14.90;11.88;;;3.80;99.90;;;;;;5060889;28;20109;-43
2023/02/14 06:47:20;;;;;;;16.10;11.50;;;3.80;99.90;;;;;;5060466;28;20461;-43
2023/02/14 06:49:46;;;;;;;15.55;12.23;;;3.80;99.90;;;;;;5061529;28;20136;-44
2023/02/14 06:52:11;;;;;;;16.42;11.80;;;3.70;99.90;;;;;;5059461;28;20068;-43
2023/02/14 06:54:40;;;;;;;15.95;11.77;;;3.80;99.90;;;;;;5060775;28;20121;-43
2023/02/14 06:57:05;;;;;;;15.85;11.70;;;3.70;99.90;;;;;;5059381;28;20029;-43
2023/02/14 06:59:31;;;;;;;15.00;11.15;;;3.70;99.90;;;;;;5060246;28;20027;-43
2023/02/14 07:01:56;;;;;;;13.55;11.10;;;3.70;99.90;;;;;;5061659;28;20020;-43
2023/02/14 07:04:22;;;;;;;16.27;11.73;;;3.70;99.90;;;;;;5061442;28;20028;-45
2023/02/14 07:06:47;;;;;;;16.67;11.63;;;3.70;99.90;;;;;;5060746;28;20036;-44
2023/02/14 07:09:17;;;;;;;12.90;10.25;;;3.70;99.90;;;;;;5061557;28;20025;-43
2023/02/14 07:11:44;;;;;;;13.00;10.02;;;3.70;99.90;;;;;;5059371;28;20040;-43
2023/02/14 07:14:10;;;;;;;14.38;11.07;;;3.60;99.90;;;;;;5059812;28;20031;-44
2023/02/14 07:16:35;;;;;;;14.63;10.98;;;3.70;99.90;;;;;;5060312;28;20020;-43
2023/02/14 07:19:01;;;;;;;14.38;10.80;;;3.60;99.90;;;;;;5059798;28;20078;-46
2023/02/14 07:21:26;;;;;;;14.15;10.98;;;3.60;99.90;;;;;;5060414;28;20063;-44
2023/02/14 07:23:52;;;;;;;16.27;12.02;;;3.60;99.90;;;;;;5059124;28;20029;-44
2023/02/14 07:26:17;;;;;;;16.88;12.00;;;3.60;99.90;;;;;;5059846;28;20079;-44
2023/02/14 07:28:44;;;;;;;18.58;13.25;;;3.60;99.90;;;;;;5059202;28;20131;-43
2023/02/14 07:31:12;;;;;;;17.80;12.20;;;3.70;99.90;;;;;;5060442;28;20036;-44
2023/02/14 07:33:41;;;;;;;20.02;12.90;;;3.60;99.90;;;;;;5060156;28;20665;-42
2023/02/14 07:36:13;;;;;;;21.52;13.20;;;3.70;99.90;;;;;;5059310;28;20028;-42
2023/02/14 07:38:38;;;;;;;23.25;13.75;;;3.60;99.90;;;;;;5059740;28;20039;-43
2023/02/14 07:41:04;;;;;;;22.67;14.00;;;3.60;99.90;;;;;;5059693;28;20025;-42
2023/02/14 07:43:30;;;;;;;22.48;13.85;;;3.70;99.90;;;;;;5059428;28;20040;-44
2023/02/14 07:45:55;;;;;;;22.27;14.25;;;3.70;99.90;;;;;;5058519;28;20101;-43
2023/02/14 07:48:21;;;;;;;23.77;14.50;;;3.70;99.90;;;;;;5058646;28;20144;-43
2023/02/14 07:50:47;;;;;;;23.13;13.82;;;3.70;99.90;;;;;;5057164;28;20031;-43
2023/02/14 07:53:13;;;;;;;25.15;14.48;;;3.70;99.90;;;;;;5060947;28;20030;-43
2023/02/14 07:55:39;;;;;;;24.50;15.65;;;3.80;99.90;;;;;;5059720;28;20044;-43
2023/02/14 07:58:05;;;;;;;22.73;15.73;;;3.80;99.90;;;;;;5059150;28;20095;-43
2023/02/14 08:00:30;;;;;;;24.40;15.30;;;3.80;99.90;;;;;;5059760;28;20055;-43
2023/02/14 08:02:56;;;;;;;22.42;15.02;;;3.90;99.90;;;;;;5057221;28;20040;-43
2023/02/14 08:05:22;;;;;;;21.25;14.55;;;3.90;99.90;;;;;;5048427;28;20032;-43
2023/02/14 08:07:47;;;;;;;20.05;14.30;;;3.90;99.90;;;;;;5058557;28;20051;-43
2023/02/14 08:10:14;;;;;;;22.73;14.82;;;3.90;99.90;;;;;;5056632;28;20013;-43
2023/02/14 08:12:58;;;;;;;21.48;14.85;;;3.90;99.90;;;;;;5062880;28;20119;-43
2023/02/14 08:18:15;;;;;;;21.77;14.05;;;4.10;99.90;;;;;;5051402;28;20123;-43
2023/02/14 08:20:40;;;;;;;16.95;12.70;;;4.10;99.90;;;;;;5059885;28;20101;-43
2023/02/14 08:23:09;;;;;;;18.83;12.82;;;4.10;99.90;;;;;;5058131;28;20501;-43
2023/02/14 08:25:35;;;;;;;18.15;13.15;;;4.20;99.90;;;;;;5058652;28;20058;-43
2023/02/14 08:28:02;;;;;;;18.50;12.75;;;4.20;99.90;;;;;;5059753;28;20032;-42
2023/02/14 08:30:28;;;;;;;17.40;12.20;;;4.20;99.90;;;;;;5059276;28;20099;-42
2023/02/14 08:32:53;;;;;;;16.42;11.75;;;4.30;99.90;;;;;;5059024;28;20029;-43
2023/02/14 08:35:19;;;;;;;16.05;11.45;;;4.30;99.90;;;;;;5060249;28;20024;-43
2023/02/14 08:37:44;;;;;;;14.65;11.55;;;4.40;99.90;;;;;;5059953;28;20034;-43
2023/02/14 08:40:13;;;;;;;15.20;11.35;;;4.40;99.90;;;;;;5059008;28;20024;-43
2023/02/14 08:42:39;;;;;;;15.38;11.15;;;4.50;99.90;;;;;;5059378;28;20222;-44
2023/02/14 08:45:05;;;;;;;16.42;11.23;;;4.50;99.90;;;;;;5058000;28;20032;-43
2023/02/14 08:47:37;;;;;;;13.48;11.13;;;4.60;99.90;;;;;;5059017;28;20103;-43
2023/02/14 08:50:04;;;;;;;15.57;10.48;;;4.60;99.90;;;;;;5058502;28;20081;-42
2023/02/14 08:52:30;;;;;;;17.55;11.90;;;4.70;99.90;;;;;;5058202;28;20029;-44
2023/02/14 08:54:56;;;;;;;13.95;10.93;;;4.70;99.90;;;;;;5058661;28;20086;-43
2023/02/14 08:57:22;;;;;;;15.50;10.95;;;4.80;99.90;;;;;;5057698;28;20170;-43
2023/02/14 08:59:47;;;;;;;14.70;10.82;;;4.80;99.90;;;;;;5051238;28;20043;-43
2023/02/14 09:02:15;;;;;;;16.35;12.00;;;4.80;99.90;;;;;;5058648;28;20661;-43
2023/02/14 09:04:40;;;;;;;17.27;12.25;;;4.90;99.90;;;;;;5057870;28;20028;-43
2023/02/14 09:07:06;;;;;;;16.75;12.35;;;5.00;99.90;;;;;;5059146;28;20912;-43
2023/02/14 09:09:31;;;;;;;17.60;12.13;;;5.00;99.90;;;;;;5064638;28;20032;-44
2023/02/14 09:11:57;;;;;;;15.35;11.70;;;5.00;99.90;;;;;;5058002;28;20047;-43
2023/02/14 09:14:23;;;;;;;14.30;10.82;;;5.00;99.90;;;;;;5058472;28;20024;-44
2023/02/14 09:16:49;;;;;;;13.55;10.38;;;5.10;99.90;;;;;;5057136;28;20056;-44
2023/02/14 09:19:15;;;;;;;17.77;12.02;;;5.10;99.90;;;;;;5058668;28;20020;-44
2023/02/14 09:21:40;;;;;;;14.70;11.50;;;5.10;99.90;;;;;;5058733;28;20028;-44
2023/02/14 09:24:06;;;;;;;15.30;11.55;;;5.20;99.90;;;;;;5059015;28;20036;-43
2023/02/14 09:26:32;;;;;;;15.88;12.52;;;5.20;99.90;;;;;;5058086;28;20117;-44
2023/02/14 09:28:57;;;;;;;15.88;12.20;;;5.30;99.90;;;;;;5059173;28;20025;-42
2023/02/14 09:31:24;;;;;;;14.50;10.38;;;5.30;99.90;;;;;;5058833;28;20344;-43
2023/02/14 09:39:19;;;;;;;16.52;11.35;;;5.40;99.90;;;;;;5058782;28;20530;-45
2023/02/14 09:42:13;;;;;;;15.18;11.77;;;5.50;99.90;;;;;;5058081;28;20527;-43
2023/02/14 09:44:41;;;;;;;15.38;11.43;;;5.50;99.90;;;;;;5058497;28;20083;-42
2023/02/14 09:47:29;;;;;;;15.80;11.20;;;5.60;99.90;;;;;;5056150;28;20103;-44
2023/02/14 09:49:55;;;;;;;16.13;11.68;;;5.60;99.90;;;;;;5057026;28;20047;-43
2023/02/14 09:52:25;;;;;;;14.68;11.05;;;5.70;99.90;;;;;;5058414;28;20025;-43
2023/02/14 09:54:56;;;;;;;15.70;11.73;;;5.70;99.90;;;;;;5057919;28;20028;-43
2023/02/14 09:57:37;;;;;;;14.73;11.02;;;5.80;99.90;;;;;;5056771;28;20053;-42
2023/02/14 10:00:26;;;;;;;14.85;11.05;;;5.80;99.90;;;;;;5038360;28;20098;-42
2023/02/14 10:03:11;;;;;;;17.17;11.63;;;5.90;99.90;;;;;;5044995;28;20045;-42
2023/02/14 10:05:53;;;;;;;14.90;11.15;;;5.90;99.90;;;;;;5063087;28;20030;-43
2023/02/14 10:09:02;;;;;;;16.27;10.65;;;6.00;99.90;;;;;;5060090;28;20695;-43
2023/02/14 10:11:28;;;;;;;14.18;10.02;;;6.10;99.90;;;;;;5023694;28;20807;-42
2023/02/14 10:14:02;;;;;;;16.63;11.45;;;6.10;99.90;;;;;;5061694;28;20020;-42
2023/02/14 10:16:34;;;;;;;18.98;12.38;;;6.20;99.90;;;;;;5061327;28;20029;-43
2023/02/14 10:19:03;;;;;;;16.05;11.77;;;6.30;99.90;;;;;;5062295;28;20067;-43
2023/02/14 10:21:45;;;;;;;16.80;12.30;;;6.40;99.90;;;;;;5062607;28;20032;-43
2023/02/14 10:24:35;;;;;;;14.60;10.88;;;6.40;99.90;;;;;;5051497;28;20028;-44
2023/02/14 10:27:31;;;;;;;16.77;12.98;;;6.50;99.90;;;;;;5061160;28;20117;-44
2023/02/14 10:29:57;;;;;;;15.13;11.45;;;6.50;99.90;;;;;;5061266;28;20029;-43
2023/02/14 10:32:47;;;;;;;19.50;12.25;;;6.60;99.90;;;;;;5061471;28;20027;-43
2023/02/14 10:35:43;;;;;;;17.13;12.02;;;6.60;99.90;;;;;;5049737;28;20040;-43
2023/02/14 10:38:26;;;;;;;16.83;12.50;;;6.70;99.90;;;;;;5060789;28;20759;-43
2023/02/14 10:41:07;;;;;;;15.52;11.65;;;6.80;99.90;;;;;;5061106;28;20060;-43
2023/02/14 10:43:57;;;;;;;17.30;12.63;;;6.90;99.90;;;;;;5060832;28;20139;-43
2023/02/14 10:46:23;;;;;;;16.80;12.57;;;7.00;99.90;;;;;;5045064;28;20029;-43
2023/02/14 10:49:16;;;;;;;18.15;12.80;;;7.00;99.90;;;;;;5061026;28;20044;-43
2023/02/14 10:51:49;;;;;;;16.42;12.70;;;7.10;99.90;;;;;;5041508;28;20044;-43
2023/02/14 10:54:19;;;;;;;15.25;12.32;;;7.10;99.90;;;;;;5060615;28;20028;-43
2023/02/14 10:57:04;;;;;;;17.13;12.85;;;7.20;99.90;;;;;;5059362;28;20025;-43
2023/02/14 10:59:34;;;;;;;14.45;11.68;;;7.20;99.90;;;;;;5060814;28;20479;-43
2023/02/14 11:02:00;;;;;;;16.70;13.07;;;7.30;99.90;;;;;;5059460;28;20463;-43
2023/02/14 11:04:28;;;;;;;20.45;13.45;;;7.40;99.90;;;;;;5058993;28;20475;-43
2023/02/14 11:06:57;;;;;;;17.92;13.27;;;7.40;99.90;;;;;;5058484;28;20079;-43
2023/02/14 11:09:23;;;;;;;16.65;12.55;;;7.40;99.90;;;;;;5059704;28;20067;-43
2023/02/14 11:11:54;;;;;;;15.52;12.18;;;7.50;99.90;;;;;;5060692;28;20123;-43
2023/02/14 11:14:34;;;;;;;15.95;12.75;;;7.60;99.90;;;;;;5058647;28;20107;-43
2023/02/14 11:17:26;;;;;;;17.27;12.70;;;7.70;99.90;;;;;;5059350;28;20032;-43
2023/02/14 11:20:17;;;;;;;16.25;12.45;;;7.80;99.90;;;;;;5058595;28;20052;-43
2023/02/14 11:22:46;;;;;;;15.75;11.65;;;7.80;99.90;;;;;;5033746;28;20759;-43
2023/02/14 11:25:22;;;;;;;16.10;12.48;;;7.90;99.90;;;;;;5056495;28;20741;-42
2023/02/14 11:28:02;;;;;;;16.25;13.02;;;7.90;99.90;;;;;;5059999;28;20105;-43
2023/02/14 11:30:37;;;;;;;16.65;13.00;;;8.00;99.90;;;;;;5060596;28;20021;-43
2023/02/14 11:33:03;;;;;;;18.48;14.27;;;8.10;99.90;;;;;;5060404;28;20028;-43
2023/02/14 11:35:33;;;;;;;18.20;13.63;;;8.20;99.90;;;;;;5058851;28;20083;-43
2023/02/14 11:38:05;;;;;;;15.55;11.82;;;8.20;99.90;;;;;;5060062;28;20478;-44
2023/02/14 11:40:37;;;;;;;18.75;14.07;;;8.30;99.90;;;;;;5059532;28;20021;-43
2023/02/14 11:43:14;;;;;;;18.90;12.67;;;8.40;99.90;;;;;;5040159;28;20599;-44
2023/02/14 11:45:42;;;;;;;16.48;13.05;;;8.50;99.90;;;;;;5055650;28;20681;-43
2023/02/14 11:48:27;;;;;;;18.75;13.00;;;8.50;99.90;;;;;;5060337;28;20040;-44
2023/02/14 11:51:00;;;;;;;16.58;13.05;;;8.50;99.90;;;;;;5060329;28;20021;-43
2023/02/14 11:53:30;;;;;;;16.55;12.43;;;8.50;99.90;;;;;;5040158;28;20416;-43
2023/02/14 11:55:57;;;;;;;15.27;11.90;;;8.60;99.90;;;;;;5055316;28;20627;-43
2023/02/14 11:58:32;;;;;;;13.63;12.05;;;8.60;99.90;;;;;;5060187;28;20065;-44
2023/02/14 12:00:59;;;;;;;15.52;12.15;;;8.70;99.90;;;;;;5059100;28;20036;-43
2023/02/14 12:03:28;;;;;;;15.98;11.77;;;8.80;99.90;;;;;;5059827;28;20855;-43
2023/02/14 12:05:59;;;;;;;15.25;12.25;;;8.80;99.90;;;;;;5056381;28;20024;-42
2023/02/14 12:08:30;;;;;;;16.10;12.52;;;8.90;99.90;;;;;;5057598;28;20056;-42
2023/02/14 12:11:19;;;;;;;18.08;11.95;;;8.90;99.90;;;;;;5060298;28;20103;-42
2023/02/14 12:13:57;;;;;;;15.18;11.90;;;9.00;99.90;;;;;;5041434;28;20029;-43
2023/02/14 12:16:27;;;;;;;15.23;12.55;;;9.10;99.90;;;;;;5051998;28;20093;-43
2023/02/14 12:18:58;;;;;;;14.85;11.52;;;9.10;99.90;;;;;;5059320;28;20039;-43
2023/02/14 12:21:29;;;;;;;17.85;12.45;;;9.10;99.90;;;;;;5059402;28;20017;-43
2023/02/14 12:24:17;;;;;;;14.15;11.30;;;9.10;99.90;;;;;;5057829;28;20068;-43
2023/02/14 12:26:52;;;;;;;16.27;12.23;;;9.20;99.90;;;;;;5058099;28;20044;-43
2023/02/14 12:29:17;;;;;;;18.33;14.20;;;9.30;99.90;;;;;;5059028;28;20563;-44
2023/02/14 12:31:45;;;;;;;17.30;13.82;;;9.30;99.90;;;;;;5059117;28;20115;-44
2023/02/14 12:34:13;;;;;;;17.63;14.10;;;9.40;99.90;;;;;;5059515;28;20089;-43
2023/02/14 12:36:54;;;;;;;17.67;12.63;;;9.50;99.90;;;;;;5056339;28;20036;-44
2023/02/14 12:39:42;;;;;;;17.13;12.70;;;9.60;99.90;;;;;;5060411;28;20032;-43
2023/02/14 12:42:54;;;;;;;14.35;12.00;;;9.60;99.90;;;;;;5058966;28;20032;-42
2023/02/14 12:45:47;;;;;;;16.65;12.95;;;9.70;99.90;;;;;;5018031;28;20033;-43
2023/02/14 12:48:31;;;;;;;16.13;12.70;;;9.70;99.90;;;;;;5059485;28;20044;-43
2023/02/14 12:51:33;;;;;;;17.38;12.75;;;9.80;99.90;;;;;;5058362;28;20037;-44
2023/02/14 12:54:23;;;;;;;15.55;12.10;;;9.80;99.90;;;;;;5058626;28;20128;-43
2023/02/14 12:57:16;;;;;;;20.08;12.32;;;9.80;99.90;;;;;;5055098;28;20434;-43
2023/02/14 13:00:11;;;;;;;16.05;12.63;;;9.80;99.90;;;;;;5051327;28;20028;-43
2023/02/14 13:02:56;;;;;;;16.23;13.23;;;9.80;99.90;;;;;;5056819;28;20053;-42
2023/02/14 13:05:46;;;;;;;18.20;12.95;;;9.90;99.90;;;;;;5055469;28;20853;-44
2023/02/14 13:08:25;;;;;;;17.85;13.10;;;9.90;99.90;;;;;;5057720;28;20036;-43
2023/02/14 13:11:12;;;;;;;17.27;12.18;;;9.90;99.90;;;;;;5057794;28;20036;-43
2023/02/14 13:14:06;;;;;;;15.68;12.00;;;10.00;99.90;;;;;;5058111;28;20025;-44
2023/02/14 13:16:35;;;;;;;17.02;12.43;;;10.00;99.90;;;;;;5043183;28;20036;-43
2023/02/14 13:19:09;;;;;;;17.30;11.48;;;10.00;99.90;;;;;;5056500;28;20025;-43
2023/02/14 13:21:37;;;;;;;15.60;12.05;;;10.00;99.90;;;;;;5057020;28;20037;-44
2023/02/14 13:24:12;;;;;;;16.42;12.52;;;10.00;99.90;;;;;;5058953;28;20040;-44
2023/02/14 13:26:42;;;;;;;17.60;12.80;;;10.10;99.90;;;;;;5051057;28;20029;-43